createdAt,value
2022-11-21T00:00:53.658Z,35.40
2022-11-21T00:03:22.226Z,35.50
2022-11-21T00:05:50.952Z,35.60
2022-11-21T00:08:20.303Z,36.00
2022-11-21T00:10:50.268Z,36.40
2022-11-21T00:13:20.153Z,36.70
2022-11-21T00:15:49.119Z,37.10
2022-11-21T00:18:17.586Z,37.10
2022-11-21T00:20:46.086Z,37.10
2022-11-21T00:23:14.657Z,37.10
2022-11-21T00:25:43.103Z,37.20
2022-11-21T00:28:13.026Z,37.40
2022-11-21T00:30:41.568Z,37.50
2022-11-21T00:33:10.902Z,37.60
2022-11-21T00:35:39.396Z,37.70
2022-11-21T00:38:07.896Z,38.00
2022-11-21T00:40:36.379Z,38.20
2022-11-21T00:43:04.894Z,38.30
2022-11-21T00:45:35.006Z,38.50
2022-11-21T00:48:03.657Z,38.70
2022-11-21T00:50:32.198Z,38.90
2022-11-21T00:53:00.837Z,38.40
2022-11-21T00:55:29.604Z,38.50
2022-11-21T00:57:58.109Z,38.50
2022-11-21T01:00:26.561Z,38.60
2022-11-21T01:02:56.555Z,38.50
2022-11-21T01:05:25.130Z,37.10
2022-11-21T01:07:53.698Z,36.20
2022-11-21T01:10:22.279Z,36.90
2022-11-21T01:12:50.670Z,37.00
2022-11-21T01:15:19.253Z,37.20
2022-11-21T01:17:47.779Z,37.30
2022-11-21T01:20:17.822Z,37.20
2022-11-21T01:22:46.422Z,36.70
2022-11-21T01:25:14.905Z,35.90
2022-11-21T01:27:43.439Z,35.80
2022-11-21T01:30:12.945Z,35.20
2022-11-21T01:32:41.631Z,35.40
2022-11-21T01:35:10.485Z,34.20
2022-11-21T01:37:40.639Z,34.00
2022-11-21T01:40:10.076Z,34.30
2022-11-21T01:42:46.239Z,34.30
2022-11-21T01:45:29.793Z,34.20
2022-11-21T01:47:58.601Z,33.80
2022-11-21T01:50:27.194Z,33.30
2022-11-21T01:52:57.257Z,33.30
2022-11-21T01:55:25.935Z,33.10
2022-11-21T01:57:54.361Z,33.30
2022-11-21T02:00:25.191Z,33.40
2022-11-21T02:02:55.530Z,33.60
2022-11-21T02:05:25.674Z,34.00
2022-11-21T02:07:55.623Z,34.30
2022-11-21T02:10:26.400Z,34.40
2022-11-21T02:12:55.484Z,34.60
2022-11-21T02:15:25.341Z,34.60
2022-11-21T02:17:53.978Z,34.60
2022-11-21T02:20:24.080Z,34.80
2022-11-21T02:22:56.015Z,34.70
2022-11-21T02:25:27.949Z,34.70
2022-11-21T02:27:58.998Z,34.80
2022-11-21T02:30:28.083Z,34.80
2022-11-21T02:32:56.988Z,34.90
2022-11-21T02:35:25.618Z,35.10
2022-11-21T02:37:58.177Z,35.10
2022-11-21T02:40:30.202Z,35.20
2022-11-21T02:43:01.639Z,35.30
2022-11-21T02:45:31.795Z,35.60
2022-11-21T02:48:03.996Z,35.60
2022-11-21T02:50:33.950Z,35.80
2022-11-21T02:53:02.651Z,35.90
2022-11-21T02:55:32.999Z,36.10
2022-11-21T02:58:04.900Z,36.20
2022-11-21T03:00:34.587Z,36.30
2022-11-21T03:03:03.193Z,36.40
2022-11-21T03:05:31.877Z,36.30
2022-11-21T03:08:00.485Z,36.40
2022-11-21T03:10:29.152Z,35.50
2022-11-21T03:13:02.159Z,35.00
2022-11-21T03:15:31.370Z,34.70
2022-11-21T03:18:01.368Z,34.90
2022-11-21T03:20:30.158Z,34.60
2022-11-21T03:22:58.762Z,34.40
2022-11-21T03:25:27.260Z,34.40
2022-11-21T03:27:56.047Z,33.80
2022-11-21T03:30:44.388Z,33.20
2022-11-21T03:33:12.875Z,32.80
2022-11-21T03:35:41.395Z,32.70
2022-11-21T03:38:09.913Z,33.10
2022-11-21T03:40:38.431Z,33.20
2022-11-21T03:43:08.087Z,32.70
2022-11-21T03:45:36.651Z,32.70
2022-11-21T03:48:06.905Z,32.50
2022-11-21T03:50:35.389Z,32.60
2022-11-21T03:53:03.956Z,32.70
2022-11-21T03:55:32.375Z,32.80
2022-11-21T03:58:00.846Z,32.50
2022-11-21T04:00:29.761Z,32.90
2022-11-21T04:02:58.228Z,33.10
2022-11-21T04:05:28.197Z,32.80
2022-11-21T04:07:56.803Z,32.80
2022-11-21T04:10:25.216Z,32.70
2022-11-21T04:12:53.676Z,32.80
2022-11-21T04:15:22.556Z,33.00
2022-11-21T04:17:51.356Z,33.00
2022-11-21T04:20:20.357Z,33.00
2022-11-21T04:22:50.645Z,33.10
2022-11-21T04:25:38.388Z,33.30
2022-11-21T04:28:07.741Z,32.80
2022-11-21T04:30:37.427Z,32.80
2022-11-21T04:33:06.430Z,32.60
2022-11-21T04:35:35.554Z,32.50
2022-11-21T04:38:05.962Z,32.20
2022-11-21T04:40:34.795Z,32.20
2022-11-21T04:43:03.719Z,32.40
2022-11-21T04:45:32.909Z,32.70
2022-11-21T04:48:02.016Z,33.00
2022-11-21T04:50:30.783Z,33.10
2022-11-21T04:52:59.289Z,31.90
2022-11-21T04:55:31.412Z,31.30
2022-11-21T04:58:00.314Z,30.60
2022-11-21T05:00:28.952Z,30.00
2022-11-21T05:03:03.712Z,30.20
2022-11-21T05:05:32.448Z,30.10
2022-11-21T05:08:00.959Z,29.90
2022-11-21T05:10:31.002Z,29.90
2022-11-21T05:13:31.981Z,29.80
2022-11-21T05:16:00.502Z,29.90
2022-11-21T05:18:29.790Z,29.40
2022-11-21T05:20:58.445Z,29.10
2022-11-21T05:23:27.006Z,29.10
2022-11-21T05:25:56.950Z,29.00
2022-11-21T05:28:25.783Z,28.90
2022-11-21T05:30:54.824Z,29.00
2022-11-21T05:33:23.688Z,28.90
2022-11-21T05:35:52.577Z,29.00
2022-11-21T05:38:21.435Z,29.00
2022-11-21T05:40:50.370Z,28.70
2022-11-21T05:43:38.157Z,28.90
2022-11-21T05:46:07.109Z,28.80
2022-11-21T05:48:37.056Z,28.90
2022-11-21T05:51:06.462Z,29.10
2022-11-21T05:53:36.514Z,29.30
2022-11-21T05:56:07.766Z,29.20
2022-11-21T05:58:38.513Z,29.20
2022-11-21T06:01:08.793Z,29.20
2022-11-21T06:03:38.711Z,29.10
2022-11-21T06:06:09.929Z,29.30
2022-11-21T06:08:40.903Z,29.40
2022-11-21T06:11:11.510Z,29.30
2022-11-21T06:13:42.275Z,29.40
2022-11-21T06:16:13.279Z,29.40
2022-11-21T06:18:43.341Z,29.30
2022-11-21T06:21:15.744Z,29.30
2022-11-21T06:24:03.278Z,29.20
2022-11-21T06:26:32.099Z,29.30
2022-11-21T06:29:02.306Z,29.40
2022-11-21T06:31:32.075Z,29.40
2022-11-21T06:34:01.299Z,29.50
2022-11-21T06:36:30.147Z,29.70
2022-11-21T06:38:59.210Z,29.60
2022-11-21T06:41:31.051Z,29.40
2022-11-21T06:44:02.376Z,29.30
2022-11-21T06:46:31.372Z,28.70
2022-11-21T06:49:00.186Z,28.20
2022-11-21T06:51:28.973Z,27.70
2022-11-21T06:53:59.507Z,27.40
2022-11-21T06:56:30.144Z,27.40
2022-11-21T06:58:59.880Z,26.50
2022-11-21T07:01:30.275Z,26.80
2022-11-21T07:04:17.417Z,26.60
2022-11-21T07:06:46.442Z,26.70
2022-11-21T07:09:32.868Z,26.80
2022-11-21T07:12:23.335Z,26.80
2022-11-21T07:14:51.591Z,26.90
2022-11-21T07:17:21.823Z,26.70
2022-11-21T07:19:50.614Z,26.60
2022-11-21T07:22:40.746Z,26.70
2022-11-21T07:25:10.281Z,26.40
2022-11-21T07:27:39.261Z,26.50
2022-11-21T07:30:11.668Z,26.50
2022-11-21T07:32:42.198Z,26.30
2022-11-21T07:35:11.623Z,26.30
2022-11-21T07:37:41.063Z,25.90
2022-11-21T07:40:10.497Z,26.00
2022-11-21T07:42:39.339Z,26.10
2022-11-21T07:45:09.088Z,26.20
2022-11-21T07:47:38.044Z,25.70
2022-11-21T07:50:10.610Z,25.70
2022-11-21T07:52:39.804Z,25.80
2022-11-21T07:55:29.981Z,25.40
2022-11-21T07:58:02.771Z,24.50
2022-11-21T08:00:32.947Z,24.20
2022-11-21T08:03:02.075Z,24.40
2022-11-21T08:05:32.536Z,24.80
2022-11-21T08:08:01.483Z,24.70
2022-11-21T08:10:30.569Z,24.50
2022-11-21T08:12:59.406Z,24.00
2022-11-21T08:15:28.378Z,23.50
2022-11-21T08:17:57.197Z,23.70
2022-11-21T08:20:26.266Z,23.50
2022-11-21T08:22:56.627Z,23.40
2022-11-21T08:25:25.554Z,23.10
2022-11-21T08:27:58.015Z,22.50
2022-11-21T08:30:27.605Z,22.40
2022-11-21T08:32:56.446Z,22.50
2022-11-21T08:35:25.667Z,21.70
2022-11-21T08:37:59.062Z,22.50
2022-11-21T08:40:39.157Z,21.60
2022-11-21T08:43:09.845Z,21.50
2022-11-21T08:45:40.590Z,21.60
2022-11-21T08:48:13.085Z,21.80
2022-11-21T08:50:42.912Z,21.90
2022-11-21T08:53:13.864Z,22.10
2022-11-21T08:55:42.869Z,22.50
2022-11-21T08:58:15.402Z,22.20
2022-11-21T09:00:44.585Z,22.30
2022-11-21T09:03:15.791Z,22.40
2022-11-21T09:05:48.114Z,22.00
2022-11-21T09:08:17.992Z,22.30
2022-11-21T09:10:46.576Z,22.40
2022-11-21T09:13:15.393Z,22.20
2022-11-21T09:16:01.294Z,22.00
2022-11-21T09:18:29.899Z,21.90
2022-11-21T09:20:59.087Z,21.70
2022-11-21T09:23:29.301Z,21.30
2022-11-21T09:25:57.899Z,21.60
2022-11-21T09:28:26.466Z,21.40
2022-11-21T09:30:55.269Z,21.60
2022-11-21T09:33:24.099Z,22.10
2022-11-21T09:35:52.945Z,21.80
2022-11-21T09:38:24.183Z,21.90
2022-11-21T09:41:22.409Z,21.70
2022-11-21T09:44:03.093Z,21.40
2022-11-21T09:46:36.975Z,21.40
2022-11-21T09:49:09.149Z,21.70
2022-11-21T09:51:40.823Z,21.70
2022-11-21T09:54:18.476Z,22.00
2022-11-21T09:56:49.700Z,22.30
2022-11-21T09:59:37.861Z,22.40
2022-11-21T10:02:16.245Z,22.30
2022-11-21T10:04:45.555Z,22.50
2022-11-21T10:07:22.182Z,22.60
2022-11-21T10:10:20.346Z,22.30
2022-11-21T10:13:07.716Z,22.60
2022-11-21T10:15:49.171Z,22.60
2022-11-21T10:18:46.289Z,22.70
2022-11-21T10:21:32.745Z,22.60
2022-11-21T10:24:13.823Z,22.70
2022-11-21T10:26:47.670Z,22.50
2022-11-21T10:29:24.138Z,22.60
2022-11-21T10:31:56.373Z,22.70
2022-11-21T10:34:31.207Z,23.00
2022-11-21T10:37:09.129Z,23.20
2022-11-21T10:39:45.611Z,23.70
2022-11-21T10:42:24.901Z,24.00
2022-11-21T10:45:18.945Z,24.30
2022-11-21T10:47:48.276Z,24.70
2022-11-21T10:50:31.585Z,25.00
2022-11-21T10:53:24.763Z,25.30
2022-11-21T10:55:59.093Z,25.60
2022-11-21T10:58:34.819Z,25.90
2022-11-21T11:01:05.176Z,26.00
2022-11-21T11:03:34.245Z,26.20
2022-11-21T11:06:02.929Z,26.60
2022-11-21T11:08:50.592Z,26.50
2022-11-21T11:11:21.838Z,26.70
2022-11-21T11:13:54.909Z,26.40
2022-11-21T11:16:25.966Z,26.70
2022-11-21T11:19:00.451Z,26.80
2022-11-21T11:21:29.927Z,26.90
2022-11-21T11:24:08.240Z,26.90
2022-11-21T11:26:37.085Z,27.00
2022-11-21T11:29:16.602Z,27.20
2022-11-21T11:31:51.102Z,27.40
2022-11-21T11:34:20.134Z,27.40
2022-11-21T11:36:56.143Z,27.50
2022-11-21T11:39:39.818Z,27.70
2022-11-21T11:42:34.941Z,27.90
2022-11-21T11:45:28.469Z,28.10
2022-11-21T11:48:01.035Z,27.90
2022-11-21T11:50:33.738Z,28.10
2022-11-21T11:53:06.591Z,28.40
2022-11-21T11:55:40.075Z,28.50
2022-11-21T11:58:12.916Z,28.50
2022-11-21T12:00:43.959Z,28.50
2022-11-21T12:03:16.364Z,28.60
2022-11-21T12:05:51.515Z,29.20
2022-11-21T12:11:42.635Z,29.90
2022-11-21T12:14:37.729Z,30.00
2022-11-21T12:17:09.498Z,30.60
2022-11-21T12:19:41.094Z,30.60
2022-11-21T12:22:12.034Z,30.90
2022-11-21T12:24:43.150Z,31.00
2022-11-21T12:27:30.185Z,31.90
2022-11-21T12:30:15.214Z,32.80
2022-11-21T12:32:50.824Z,34.30
2022-11-21T12:35:27.712Z,36.20
2022-11-21T12:38:02.160Z,37.60
2022-11-21T12:40:36.473Z,38.90
2022-11-21T12:43:08.841Z,40.70
2022-11-21T12:45:38.925Z,43.40
2022-11-21T12:48:38.857Z,44.80
2022-11-21T12:51:35.930Z,45.00
2022-11-21T12:54:30.803Z,46.30
2022-11-21T12:57:02.667Z,47.70
2022-11-21T12:59:32.466Z,49.00
2022-11-21T13:02:08.831Z,51.30
2022-11-21T13:04:38.808Z,52.10
2022-11-21T13:07:08.318Z,54.40
2022-11-21T13:09:39.897Z,54.70
2022-11-21T13:12:30.922Z,55.50
2022-11-21T13:15:03.983Z,55.20
2022-11-21T13:17:39.735Z,55.30
2022-11-21T13:20:15.302Z,55.50
2022-11-21T13:22:50.670Z,55.40
2022-11-21T13:25:40.616Z,53.30
2022-11-21T13:28:25.416Z,53.40
2022-11-21T13:30:54.699Z,53.30
2022-11-21T13:33:41.746Z,53.70
2022-11-21T13:36:12.005Z,54.30
2022-11-21T13:39:01.454Z,55.50
2022-11-21T13:42:05.903Z,55.00
2022-11-21T13:44:42.916Z,55.00
2022-11-21T13:47:13.715Z,55.30
2022-11-21T13:49:47.084Z,55.50
2022-11-21T13:52:22.386Z,55.50
2022-11-21T13:55:09.134Z,55.70
2022-11-21T13:57:53.825Z,56.50
2022-11-21T14:00:31.535Z,57.20
2022-11-21T14:03:14.942Z,57.40
2022-11-21T14:05:52.525Z,59.80
2022-11-21T14:08:22.482Z,62.20
2022-11-21T14:10:52.226Z,63.10
2022-11-21T14:13:25.276Z,63.50
2022-11-21T14:16:00.966Z,63.30
2022-11-21T14:18:29.712Z,64.20
2022-11-21T14:21:00.738Z,64.40
2022-11-21T14:23:30.884Z,64.00
2022-11-21T14:26:01.316Z,62.70
2022-11-21T14:28:31.001Z,63.10
2022-11-21T14:31:02.153Z,62.40
2022-11-21T14:33:32.508Z,60.90
2022-11-21T14:36:02.811Z,60.50
2022-11-21T14:38:32.564Z,59.30
2022-11-21T14:41:25.051Z,59.10
2022-11-21T14:44:02.502Z,58.60
2022-11-21T14:46:33.239Z,58.50
2022-11-21T14:49:12.646Z,59.50
2022-11-21T14:52:02.699Z,59.30
2022-11-21T14:54:32.536Z,60.00
2022-11-21T14:57:01.792Z,60.70
2022-11-21T14:59:32.026Z,61.80
2022-11-21T15:02:04.169Z,63.40
2022-11-21T15:04:34.330Z,64.40
2022-11-21T15:07:06.452Z,65.50
2022-11-21T15:12:28.174Z,68.30
2022-11-21T15:15:02.034Z,69.50
2022-11-21T15:17:32.848Z,68.90
2022-11-21T15:20:11.200Z,69.20
2022-11-21T15:22:42.713Z,69.50
2022-11-21T15:25:19.723Z,69.80
2022-11-21T15:27:48.680Z,69.30
2022-11-21T15:30:25.357Z,69.00
2022-11-21T15:33:02.529Z,68.60
2022-11-21T15:35:40.373Z,67.80
2022-11-21T15:38:18.602Z,66.40
2022-11-21T15:40:57.319Z,65.70
2022-11-21T15:43:36.556Z,64.40
2022-11-21T15:46:05.921Z,63.70
2022-11-21T15:48:36.166Z,62.60
2022-11-21T15:51:04.727Z,60.60
2022-11-21T15:53:33.641Z,60.70
2022-11-21T15:56:02.209Z,59.80
2022-11-21T15:58:32.489Z,58.60
2022-11-21T16:01:01.957Z,57.80
2022-11-21T16:03:30.536Z,56.40
2022-11-21T16:06:00.649Z,56.20
2022-11-21T16:08:32.779Z,55.70
2022-11-21T16:11:01.401Z,55.80
2022-11-21T16:13:29.937Z,55.10
2022-11-21T16:15:58.579Z,54.10
2022-11-21T16:18:27.071Z,54.20
2022-11-21T16:20:55.494Z,53.10
2022-11-21T16:23:25.546Z,52.90
2022-11-21T16:25:54.511Z,52.00
2022-11-21T16:28:23.132Z,50.80
2022-11-21T16:30:51.826Z,50.70
2022-11-21T16:33:25.814Z,50.10
2022-11-21T16:35:57.235Z,49.10
2022-11-21T16:38:29.151Z,48.60
2022-11-21T16:40:59.077Z,48.10
2022-11-21T16:43:28.398Z,48.30
2022-11-21T16:45:57.141Z,47.50
2022-11-21T16:48:25.890Z,46.70
2022-11-21T16:50:54.355Z,46.30
2022-11-21T16:53:22.880Z,46.20
2022-11-21T16:56:01.043Z,46.10
2022-11-21T16:58:29.546Z,46.10
2022-11-21T17:00:59.229Z,46.10
2022-11-21T17:03:27.867Z,45.80
2022-11-21T17:06:02.016Z,45.90
2022-11-21T17:08:30.709Z,46.20
2022-11-21T17:11:01.605Z,46.30
2022-11-21T17:13:50.244Z,46.20
2022-11-21T17:16:19.682Z,46.20
2022-11-21T17:19:07.290Z,46.30
2022-11-21T17:21:35.970Z,46.60
2022-11-21T17:24:04.702Z,46.70
2022-11-21T17:26:36.865Z,46.80
2022-11-21T17:29:05.522Z,47.10
2022-11-21T17:31:34.193Z,47.30
2022-11-21T17:34:02.956Z,47.60
2022-11-21T17:36:34.736Z,47.50
2022-11-21T17:39:03.539Z,47.70
2022-11-21T17:41:32.214Z,48.00
2022-11-21T17:44:02.289Z,48.00
2022-11-21T17:46:30.919Z,48.10
2022-11-21T17:48:59.882Z,48.40
2022-11-21T17:51:29.762Z,48.40
2022-11-21T17:53:59.753Z,48.50
2022-11-21T17:56:29.358Z,48.30
2022-11-21T17:58:58.057Z,48.40
2022-11-21T18:01:28.458Z,48.40
2022-11-21T18:03:58.439Z,48.10
2022-11-21T18:06:28.411Z,48.20
2022-11-21T18:08:57.513Z,48.10
2022-11-21T18:11:28.586Z,47.90
2022-11-21T18:13:57.271Z,48.00
2022-11-21T18:16:26.916Z,47.80
2022-11-21T18:18:57.088Z,47.50
2022-11-21T18:21:26.507Z,47.30
2022-11-21T18:23:55.427Z,47.20
2022-11-21T18:26:24.964Z,47.20
2022-11-21T18:32:01.133Z,47.10
2022-11-21T18:34:31.416Z,46.90
2022-11-21T18:37:00.280Z,46.80
2022-11-21T18:39:29.453Z,46.60
2022-11-21T18:41:58.224Z,46.60
2022-11-21T18:44:26.888Z,46.20
2022-11-21T18:46:55.831Z,46.10
2022-11-21T18:49:24.489Z,45.90
2022-11-21T18:51:55.106Z,45.80
2022-11-21T18:54:23.798Z,45.90
2022-11-21T18:56:52.368Z,46.00
2022-11-21T18:59:21.460Z,46.10
2022-11-21T19:01:51.014Z,46.30
2022-11-21T19:04:20.638Z,46.60
2022-11-21T19:06:49.494Z,46.50
2022-11-21T19:09:19.783Z,46.50
2022-11-21T19:11:48.396Z,46.60
2022-11-21T19:14:16.877Z,46.60
2022-11-21T19:16:45.351Z,46.30
2022-11-21T19:22:04.949Z,46.30
2022-11-21T19:24:35.232Z,45.70
2022-11-21T19:27:03.769Z,45.70
2022-11-21T19:29:33.336Z,45.80
2022-11-21T19:32:02.026Z,45.50
2022-11-21T19:34:30.486Z,45.90
2022-11-21T19:36:59.360Z,45.40
2022-11-21T19:39:28.381Z,45.20
2022-11-21T19:41:58.667Z,45.20
2022-11-21T19:44:27.283Z,45.30
2022-11-21T19:46:56.061Z,45.40
2022-11-21T19:49:24.600Z,45.50
2022-11-21T19:51:53.269Z,45.70
2022-11-21T19:54:21.712Z,45.80
2022-11-21T19:56:50.201Z,45.80
2022-11-21T19:59:20.268Z,45.80
2022-11-21T20:01:52.639Z,45.90
2022-11-21T20:04:21.950Z,46.20
2022-11-21T20:06:50.495Z,46.80
2022-11-21T20:09:19.547Z,45.90
2022-11-21T20:11:48.911Z,46.10
2022-11-21T20:14:21.882Z,45.90
2022-11-21T20:16:54.161Z,46.00
2022-11-21T20:19:24.357Z,46.20
2022-11-21T20:21:53.406Z,46.30
2022-11-21T20:24:21.883Z,46.40
2022-11-21T20:26:50.423Z,46.50
2022-11-21T20:29:19.128Z,46.60
2022-11-21T20:31:48.557Z,46.60
2022-11-21T20:34:18.764Z,46.80
2022-11-21T20:36:47.999Z,46.70
2022-11-21T20:39:17.190Z,46.30
2022-11-21T20:41:46.975Z,46.40
2022-11-21T20:47:05.006Z,46.10
2022-11-21T20:49:35.053Z,46.00
2022-11-21T20:54:52.503Z,45.90
2022-11-21T20:57:20.934Z,45.30
2022-11-21T20:59:49.443Z,45.60
2022-11-21T21:02:17.967Z,45.30
2022-11-21T21:04:48.036Z,44.90
2022-11-21T21:07:16.782Z,44.90
2022-11-21T21:09:45.442Z,44.90
2022-11-21T21:12:14.044Z,45.00
2022-11-21T21:14:43.702Z,45.10
2022-11-21T21:17:12.471Z,45.40
2022-11-21T21:19:41.013Z,45.50
2022-11-21T21:22:11.171Z,45.30
2022-11-21T21:24:39.833Z,45.50
2022-11-21T21:27:08.386Z,45.10
2022-11-21T21:29:37.157Z,45.10
2022-11-21T21:32:05.906Z,45.10
2022-11-21T21:34:34.275Z,45.60
2022-11-21T21:37:02.829Z,45.80
2022-11-21T21:39:32.798Z,46.30
2022-11-21T21:42:01.474Z,46.50
2022-11-21T21:44:33.483Z,46.50
2022-11-21T21:47:02.480Z,46.60
2022-11-21T21:49:31.079Z,46.90
2022-11-21T21:51:59.518Z,47.30
2022-11-21T21:54:28.200Z,48.00
2022-11-21T21:56:58.299Z,48.40
2022-11-21T21:59:45.503Z,48.90
2022-11-21T22:02:14.017Z,49.80
2022-11-21T22:04:42.532Z,50.80
2022-11-21T22:07:11.170Z,51.70
2022-11-21T22:09:39.782Z,52.80
2022-11-21T22:12:09.842Z,54.00
2022-11-21T22:14:38.364Z,55.00
2022-11-21T22:17:07.062Z,55.60
2022-11-21T22:19:35.670Z,57.10
2022-11-21T22:22:04.417Z,57.60
2022-11-21T22:24:32.973Z,58.50
2022-11-21T22:27:01.541Z,59.10
2022-11-21T22:29:31.493Z,59.70
2022-11-21T22:32:00.035Z,60.50
2022-11-21T22:34:28.875Z,61.50
2022-11-21T22:36:57.591Z,62.50
2022-11-21T22:39:27.048Z,63.80
2022-11-21T22:41:59.682Z,64.40
2022-11-21T22:44:28.983Z,64.90
2022-11-21T22:47:00.585Z,65.50
2022-11-21T22:49:29.783Z,65.90
2022-11-21T22:51:58.330Z,66.00
2022-11-21T22:54:27.414Z,66.20
2022-11-21T22:56:56.049Z,66.20
2022-11-21T22:59:24.536Z,66.20
2022-11-21T23:01:53.154Z,66.30
2022-11-21T23:04:23.205Z,66.30
2022-11-21T23:06:52.167Z,66.30
2022-11-21T23:09:20.866Z,66.40
2022-11-21T23:11:49.398Z,66.50
2022-11-21T23:14:18.234Z,66.60
2022-11-21T23:16:46.743Z,66.90
2022-11-21T23:19:15.237Z,67.10
2022-11-21T23:21:45.348Z,67.30
2022-11-21T23:24:14.269Z,67.40
2022-11-21T23:26:42.693Z,67.70
2022-11-21T23:29:11.259Z,68.10
2022-11-21T23:31:39.726Z,68.40
2022-11-21T23:34:11.503Z,68.50
2022-11-21T23:36:40.069Z,68.80
2022-11-21T23:39:10.366Z,68.90
2022-11-21T23:41:39.157Z,69.00
2022-11-21T23:44:07.635Z,69.20
2022-11-21T23:46:36.142Z,69.50
2022-11-21T23:49:04.902Z,69.70
2022-11-21T23:51:33.409Z,70.00
2022-11-21T23:54:01.936Z,70.50
2022-11-21T23:56:32.240Z,70.90
2022-11-21T23:59:00.988Z,71.50
